< < Back
Terminal Aerodrome Forecast


Current Version              Previous Versions:   1  2  3  4  5  6  7  8  9  

Terminal Aerodrome Forecast

028
FTUS44 KBMX 202300
TAFANB
TAF
KANB 202340Z 2100/2124 05004KT P6SM SCT250
     FM211700 21005KT P6SM BKN150=



Latest METAR

408
SAUS70 KWBC 210700 RRH
MTRANB
METAR KANB 210653Z AUTO 07004KT 10SM CLR 12/09 A3014 RMK AO2 SLP205
T01220094


USA.gov is the U.S. government's official web portal to all federal, state and local government web resources and services.